General Aviation Weather

Text Reports

Enter one or more of the following location identifiers separated by a space:

Zip Code, Four-Character ICAO or Three-Character IATA airport codes.

METAR - Aviation Routine Weather Report
K20V - Kremmling, Colorado
Updated at 9:55 PM GMT on May 22, 2015 (3:55 PM MDT):
METAR K20V 222155Z AUTO 24012KT 194V274 10SM CLR 15/M01 A2999 RMK AO2 LTG DSNT SW THRU NW
TAF - Terminal Area Forecast
K20V - Kremmling, Colorado
Updated at 9:55 PM GMT on May 22, 2015 (3:55 PM MDT):
No TAF is currently available for this location.
Decoded:
No decoded TAF is available.
PIREP - Pilot Weather Report
K20V - Kremmling, Colorado
Updated at 9:55 PM GMT on May 22, 2015 (3:55 PM MDT):
No PIREP is currently available for this location.
AIRMET - Airmens Meteorological Information
K20V - Kremmling, Colorado
Updated at 9:55 PM GMT on May 22, 2015 (3:55 PM MDT):
No AIRMET is currently available for this location.
SIGMET - Significant Meteorological Information
K20V - Kremmling, Colorado
Updated at 9:55 PM GMT on May 22, 2015 (3:55 PM MDT):
No SIGMET is currently available for this location.
NOTAM - Notice to Airmen
K20V - Kremmling, Colorado
Updated at 9:55 PM GMT on May 22, 2015 (3:55 PM MDT):
No NOTAM is currently available for this location.
Forecast Area
K20V - Kremmling, Colorado
Updated at 9:55 PM GMT on May 22, 2015 (3:55 PM MDT):
No NOTAM is currently available for this location.
Aviation Weather Maps